Miami, Florida
Traffic Map
Current Weather Conditions
Miami, Florida
Broken Clouds
Broken Clouds
89°
Feels Like: 100°
Wind Chill: 89° Ceiling: 25000
Heat Index: 100° Visibility: 10mi
Dew Point: 76° Wind: 7mph
Humidity: 65% Direction: ° ()
Pressure: 30.11in Gusts: 0mph
Raw Report DataKMIA 221453Z VRB06KT 10SM SCT023 BKN250 32/24 A3011 RMK AO2 SLP196 T03170244 53009
Traffic Incident Summary
Active as of:
Severity:
Category:
InformationThere was an issue retrieving the traffic information for this location. Please try a different location or try again shortly.
Advertisements
Track Severe Weather on mobile